sensor_id;sensor_type;location;lat;lon;timestamp;P1;durP1;ratioP1;P2;durP2;ratioP2
50880;SDS011;36858;47.832;-3.800;2022-11-15T00:01:45;7.30;;;2.70;;
50880;SDS011;36858;47.832;-3.800;2022-11-15T00:04:13;5.90;;;2.07;;
50880;SDS011;36858;47.832;-3.800;2022-11-15T00:06:40;9.87;;;2.30;;
50880;SDS011;36858;47.832;-3.800;2022-11-15T00:09:08;7.60;;;1.73;;
50880;SDS011;36858;47.832;-3.800;2022-11-15T00:11:35;12.60;;;2.30;;
50880;SDS011;36858;47.832;-3.800;2022-11-15T00:14:03;8.37;;;2.03;;
50880;SDS011;36858;47.832;-3.800;2022-11-15T00:16:30;7.50;;;1.77;;
50880;SDS011;36858;47.832;-3.800;2022-11-15T00:18:57;6.90;;;1.93;;
50880;SDS011;36858;47.832;-3.800;2022-11-15T00:21:25;7.37;;;2.20;;
50880;SDS011;36858;47.832;-3.800;2022-11-15T00:23:52;12.27;;;2.10;;
50880;SDS011;36858;47.832;-3.800;2022-11-15T00:26:20;8.57;;;1.90;;
50880;SDS011;36858;47.832;-3.800;2022-11-15T00:28:47;7.17;;;1.50;;
50880;SDS011;36858;47.832;-3.800;2022-11-15T00:31:15;8.27;;;1.97;;
50880;SDS011;36858;47.832;-3.800;2022-11-15T00:33:43;7.10;;;1.77;;
50880;SDS011;36858;47.832;-3.800;2022-11-15T00:36:11;7.80;;;2.30;;
50880;SDS011;36858;47.832;-3.800;2022-11-15T00:38:39;7.27;;;2.10;;
50880;SDS011;36858;47.832;-3.800;2022-11-15T00:41:07;7.53;;;1.90;;
50880;SDS011;36858;47.832;-3.800;2022-11-15T00:43:35;9.60;;;2.20;;
50880;SDS011;36858;47.832;-3.800;2022-11-15T00:46:03;12.30;;;2.40;;
50880;SDS011;36858;47.832;-3.800;2022-11-15T00:48:31;10.50;;;2.30;;
50880;SDS011;36858;47.832;-3.800;2022-11-15T02:08:49;13.30;;;2.10;;
50880;SDS011;36858;47.832;-3.800;2022-11-15T02:11:17;12.70;;;2.47;;
50880;SDS011;36858;47.832;-3.800;2022-11-15T02:13:44;10.63;;;2.60;;
50880;SDS011;36858;47.832;-3.800;2022-11-15T02:16:23;16.40;;;2.87;;
50880;SDS011;36858;47.832;-3.800;2022-11-15T02:27:53;15.87;;;3.07;;
50880;SDS011;36858;47.832;-3.800;2022-11-15T02:41:53;10.70;;;2.63;;
50880;SDS011;36858;47.832;-3.800;2022-11-15T02:44:26;13.30;;;2.33;;
50880;SDS011;36858;47.832;-3.800;2022-11-15T02:47:17;13.43;;;2.47;;
50880;SDS011;36858;47.832;-3.800;2022-11-15T02:49:45;13.83;;;2.97;;
50880;SDS011;36858;47.832;-3.800;2022-11-15T02:52:17;11.30;;;3.20;;
50880;SDS011;36858;47.832;-3.800;2022-11-15T02:54:56;15.50;;;3.23;;
50880;SDS011;36858;47.832;-3.800;2022-11-15T03:00:33;11.57;;;2.83;;
50880;SDS011;36858;47.832;-3.800;2022-11-15T03:03:13;15.23;;;3.73;;
50880;SDS011;36858;47.832;-3.800;2022-11-15T03:11:19;14.97;;;3.63;;
50880;SDS011;36858;47.832;-3.800;2022-11-15T03:16:26;14.37;;;3.20;;
50880;SDS011;36858;47.832;-3.800;2022-11-15T03:18:59;11.33;;;3.20;;
50880;SDS011;36858;47.832;-3.800;2022-11-15T03:21:41;10.20;;;2.73;;
50880;SDS011;36858;47.832;-3.800;2022-11-15T03:24:09;12.03;;;2.63;;
50880;SDS011;36858;47.832;-3.800;2022-11-15T04:29:13;16.10;;;3.00;;
50880;SDS011;36858;47.832;-3.800;2022-11-15T04:31:59;14.33;;;3.90;;
50880;SDS011;36858;47.832;-3.800;2022-11-15T04:34:30;12.23;;;2.50;;
50880;SDS011;36858;47.832;-3.800;2022-11-15T04:36:58;16.17;;;3.23;;
50880;SDS011;36858;47.832;-3.800;2022-11-15T04:39:43;11.90;;;2.73;;
50880;SDS011;36858;47.832;-3.800;2022-11-15T04:42:10;11.53;;;2.63;;
50880;SDS011;36858;47.832;-3.800;2022-11-15T04:44:38;12.17;;;2.63;;
50880;SDS011;36858;47.832;-3.800;2022-11-15T04:47:05;13.20;;;3.07;;
50880;SDS011;36858;47.832;-3.800;2022-11-15T04:49:33;14.77;;;3.30;;
50880;SDS011;36858;47.832;-3.800;2022-11-15T04:52:00;7.20;;;3.40;;
50880;SDS011;36858;47.832;-3.800;2022-11-15T04:54:28;12.53;;;2.67;;
50880;SDS011;36858;47.832;-3.800;2022-11-15T04:56:55;9.90;;;2.80;;
50880;SDS011;36858;47.832;-3.800;2022-11-15T04:59:23;12.43;;;2.70;;
50880;SDS011;36858;47.832;-3.800;2022-11-15T05:01:50;11.53;;;2.57;;
50880;SDS011;36858;47.832;-3.800;2022-11-15T05:04:17;11.77;;;3.00;;
50880;SDS011;36858;47.832;-3.800;2022-11-15T05:06:48;13.07;;;2.63;;
50880;SDS011;36858;47.832;-3.800;2022-11-15T05:09:19;11.80;;;2.50;;
50880;SDS011;36858;47.832;-3.800;2022-11-15T05:11:47;8.63;;;2.37;;
50880;SDS011;36858;47.832;-3.800;2022-11-15T05:14:15;9.70;;;1.87;;
50880;SDS011;36858;47.832;-3.800;2022-11-15T05:16:43;12.03;;;2.03;;
50880;SDS011;36858;47.832;-3.800;2022-11-15T05:19:11;12.67;;;2.93;;
50880;SDS011;36858;47.832;-3.800;2022-11-15T05:21:38;9.33;;;2.60;;
50880;SDS011;36858;47.832;-3.800;2022-11-15T05:24:06;11.53;;;2.47;;
50880;SDS011;36858;47.832;-3.800;2022-11-15T05:26:33;10.40;;;2.60;;
50880;SDS011;36858;47.832;-3.800;2022-11-15T05:29:01;12.97;;;2.67;;
50880;SDS011;36858;47.832;-3.800;2022-11-15T05:31:28;11.07;;;1.87;;
50880;SDS011;36858;47.832;-3.800;2022-11-15T05:58:31;6.10;;;1.90;;
50880;SDS011;36858;47.832;-3.800;2022-11-15T06:01:01;8.13;;;2.70;;
50880;SDS011;36858;47.832;-3.800;2022-11-15T06:03:29;11.40;;;3.23;;
50880;SDS011;36858;47.832;-3.800;2022-11-15T06:05:57;16.73;;;3.50;;
50880;SDS011;36858;47.832;-3.800;2022-11-15T06:08:24;17.20;;;3.23;;
50880;SDS011;36858;47.832;-3.800;2022-11-15T06:10:52;15.33;;;2.80;;
50880;SDS011;36858;47.832;-3.800;2022-11-15T06:13:19;15.67;;;3.30;;
50880;SDS011;36858;47.832;-3.800;2022-11-15T06:15:47;19.97;;;3.63;;
50880;SDS011;36858;47.832;-3.800;2022-11-15T06:18:14;12.33;;;2.87;;
50880;SDS011;36858;47.832;-3.800;2022-11-15T06:20:42;14.37;;;2.57;;
50880;SDS011;36858;47.832;-3.800;2022-11-15T06:23:09;17.33;;;3.07;;
50880;SDS011;36858;47.832;-3.800;2022-11-15T06:25:37;12.27;;;2.43;;
50880;SDS011;36858;47.832;-3.800;2022-11-15T06:28:04;16.20;;;3.23;;
50880;SDS011;36858;47.832;-3.800;2022-11-15T06:30:30;14.90;;;3.10;;
50880;SDS011;36858;47.832;-3.800;2022-11-15T06:32:59;13.03;;;2.57;;
50880;SDS011;36858;47.832;-3.800;2022-11-15T06:35:27;13.30;;;3.23;;
50880;SDS011;36858;47.832;-3.800;2022-11-15T06:37:55;20.47;;;4.03;;
50880;SDS011;36858;47.832;-3.800;2022-11-15T06:40:23;18.27;;;3.30;;
50880;SDS011;36858;47.832;-3.800;2022-11-15T06:42:51;15.43;;;3.33;;
50880;SDS011;36858;47.832;-3.800;2022-11-15T06:45:25;11.03;;;2.77;;
50880;SDS011;36858;47.832;-3.800;2022-11-15T06:47:52;8.00;;;2.10;;
50880;SDS011;36858;47.832;-3.800;2022-11-15T06:50:20;10.20;;;2.30;;
50880;SDS011;36858;47.832;-3.800;2022-11-15T06:52:48;8.90;;;1.87;;
50880;SDS011;36858;47.832;-3.800;2022-11-15T06:55:15;7.43;;;1.97;;
50880;SDS011;36858;47.832;-3.800;2022-11-15T06:57:47;6.27;;;1.70;;
50880;SDS011;36858;47.832;-3.800;2022-11-15T07:39:15;9.23;;;1.97;;
50880;SDS011;36858;47.832;-3.800;2022-11-15T07:41:42;7.77;;;1.83;;
50880;SDS011;36858;47.832;-3.800;2022-11-15T07:44:10;8.50;;;2.17;;
50880;SDS011;36858;47.832;-3.800;2022-11-15T07:46:37;10.60;;;2.97;;
50880;SDS011;36858;47.832;-3.800;2022-11-15T07:49:04;9.80;;;1.83;;
50880;SDS011;36858;47.832;-3.800;2022-11-15T07:51:32;9.30;;;2.17;;
50880;SDS011;36858;47.832;-3.800;2022-11-15T07:54:00;8.63;;;1.73;;
50880;SDS011;36858;47.832;-3.800;2022-11-15T08:08:47;10.57;;;2.50;;
50880;SDS011;36858;47.832;-3.800;2022-11-15T08:11:14;12.10;;;2.87;;
50880;SDS011;36858;47.832;-3.800;2022-11-15T08:13:41;12.90;;;3.13;;
50880;SDS011;36858;47.832;-3.800;2022-11-15T08:16:08;9.13;;;2.67;;
50880;SDS011;36858;47.832;-3.800;2022-11-15T08:18:36;6.97;;;2.07;;
50880;SDS011;36858;47.832;-3.800;2022-11-15T08:21:04;8.23;;;1.90;;
50880;SDS011;36858;47.832;-3.800;2022-11-15T08:23:31;10.87;;;2.30;;
50880;SDS011;36858;47.832;-3.800;2022-11-15T08:26:00;7.93;;;1.80;;
50880;SDS011;36858;47.832;-3.800;2022-11-15T08:28:29;6.77;;;1.90;;
50880;SDS011;36858;47.832;-3.800;2022-11-15T08:30:58;7.00;;;1.97;;
50880;SDS011;36858;47.832;-3.800;2022-11-15T08:33:25;8.33;;;2.10;;
50880;SDS011;36858;47.832;-3.800;2022-11-15T08:35:55;6.37;;;2.23;;
50880;SDS011;36858;47.832;-3.800;2022-11-15T08:38:24;11.50;;;1.90;;
50880;SDS011;36858;47.832;-3.800;2022-11-15T08:40:51;13.23;;;2.53;;
50880;SDS011;36858;47.832;-3.800;2022-11-15T08:43:20;13.57;;;3.63;;
50880;SDS011;36858;47.832;-3.800;2022-11-15T08:45:47;10.33;;;1.70;;
50880;SDS011;36858;47.832;-3.800;2022-11-15T08:48:15;8.50;;;1.80;;
50880;SDS011;36858;47.832;-3.800;2022-11-15T08:50:43;8.00;;;2.03;;
50880;SDS011;36858;47.832;-3.800;2022-11-15T08:53:10;9.80;;;2.23;;
50880;SDS011;36858;47.832;-3.800;2022-11-15T08:55:40;8.83;;;2.30;;
50880;SDS011;36858;47.832;-3.800;2022-11-15T08:58:07;10.37;;;2.00;;
50880;SDS011;36858;47.832;-3.800;2022-11-15T09:00:35;6.23;;;1.80;;
50880;SDS011;36858;47.832;-3.800;2022-11-15T09:03:06;7.13;;;1.70;;
50880;SDS011;36858;47.832;-3.800;2022-11-15T09:05:36;14.03;;;2.50;;
50880;SDS011;36858;47.832;-3.800;2022-11-15T09:08:04;8.80;;;1.53;;
50880;SDS011;36858;47.832;-3.800;2022-11-15T09:10:52;9.30;;;1.57;;
50880;SDS011;36858;47.832;-3.800;2022-11-15T09:21:37;9.03;;;1.60;;
50880;SDS011;36858;47.832;-3.800;2022-11-15T09:24:05;8.50;;;2.03;;
50880;SDS011;36858;47.832;-3.800;2022-11-15T09:26:32;9.83;;;1.63;;
50880;SDS011;36858;47.832;-3.800;2022-11-15T09:29:00;10.73;;;2.20;;
50880;SDS011;36858;47.832;-3.800;2022-11-15T09:31:28;8.80;;;2.63;;
50880;SDS011;36858;47.832;-3.800;2022-11-15T09:34:16;7.20;;;2.07;;
50880;SDS011;36858;47.832;-3.800;2022-11-15T09:36:44;8.07;;;1.90;;
50880;SDS011;36858;47.832;-3.800;2022-11-15T09:39:11;8.23;;;3.20;;
50880;SDS011;36858;47.832;-3.800;2022-11-15T09:49:36;7.93;;;2.20;;
50880;SDS011;36858;47.832;-3.800;2022-11-15T09:52:04;12.70;;;2.97;;
50880;SDS011;36858;47.832;-3.800;2022-11-15T09:54:35;10.10;;;2.37;;
50880;SDS011;36858;47.832;-3.800;2022-11-15T10:00:20;7.60;;;2.10;;
50880;SDS011;36858;47.832;-3.800;2022-11-15T10:03:17;10.87;;;2.50;;
50880;SDS011;36858;47.832;-3.800;2022-11-15T10:05:54;9.97;;;2.53;;
50880;SDS011;36858;47.832;-3.800;2022-11-15T10:23:48;23.73;;;7.80;;
50880;SDS011;36858;47.832;-3.800;2022-11-15T10:26:16;20.63;;;5.43;;
50880;SDS011;36858;47.832;-3.800;2022-11-15T10:28:44;11.40;;;3.60;;
50880;SDS011;36858;47.832;-3.800;2022-11-15T10:31:22;10.73;;;2.40;;
50880;SDS011;36858;47.832;-3.800;2022-11-15T10:33:56;38.17;;;5.83;;
50880;SDS011;36858;47.832;-3.800;2022-11-15T10:36:37;8.90;;;3.10;;
50880;SDS011;36858;47.832;-3.800;2022-11-15T10:39:04;9.83;;;3.40;;
50880;SDS011;36858;47.832;-3.800;2022-11-15T10:41:34;9.33;;;2.77;;
50880;SDS011;36858;47.832;-3.800;2022-11-15T10:46:35;9.13;;;2.00;;
50880;SDS011;36858;47.832;-3.800;2022-11-15T10:49:14;11.73;;;2.73;;
50880;SDS011;36858;47.832;-3.800;2022-11-15T10:51:43;19.53;;;2.77;;
50880;SDS011;36858;47.832;-3.800;2022-11-15T10:54:12;8.83;;;2.60;;
50880;SDS011;36858;47.832;-3.800;2022-11-15T11:00:38;14.47;;;2.80;;
50880;SDS011;36858;47.832;-3.800;2022-11-15T11:03:21;14.90;;;4.20;;
50880;SDS011;36858;47.832;-3.800;2022-11-15T11:06:02;15.17;;;3.27;;
50880;SDS011;36858;47.832;-3.800;2022-11-15T11:08:34;11.13;;;2.53;;
50880;SDS011;36858;47.832;-3.800;2022-11-15T11:11:07;12.07;;;2.40;;
50880;SDS011;36858;47.832;-3.800;2022-11-15T11:14:11;13.27;;;1.87;;
50880;SDS011;36858;47.832;-3.800;2022-11-15T11:19:36;8.07;;;2.20;;
50880;SDS011;36858;47.832;-3.800;2022-11-15T11:22:21;14.27;;;3.57;;
50880;SDS011;36858;47.832;-3.800;2022-11-15T11:25:11;6.47;;;2.67;;
50880;SDS011;36858;47.832;-3.800;2022-11-15T11:31:06;9.60;;;2.27;;
50880;SDS011;36858;47.832;-3.800;2022-11-15T11:42:09;8.30;;;1.37;;
50880;SDS011;36858;47.832;-3.800;2022-11-15T11:47:31;7.00;;;1.37;;
50880;SDS011;36858;47.832;-3.800;2022-11-15T11:50:18;4.43;;;1.00;;
50880;SDS011;36858;47.832;-3.800;2022-11-15T11:52:56;4.30;;;1.00;;
50880;SDS011;36858;47.832;-3.800;2022-11-15T11:55:31;3.90;;;1.00;;
50880;SDS011;36858;47.832;-3.800;2022-11-15T12:00:31;6.83;;;1.67;;
50880;SDS011;36858;47.832;-3.800;2022-11-15T12:06:10;7.53;;;1.10;;
50880;SDS011;36858;47.832;-3.800;2022-11-15T12:08:56;7.97;;;1.53;;
50880;SDS011;36858;47.832;-3.800;2022-11-15T12:11:30;5.03;;;1.30;;
50880;SDS011;36858;47.832;-3.800;2022-11-15T12:14:05;7.47;;;1.70;;
50880;SDS011;36858;47.832;-3.800;2022-11-15T12:17:08;6.03;;;1.40;;
50880;SDS011;36858;47.832;-3.800;2022-11-15T12:19:38;12.97;;;2.17;;
50880;SDS011;36858;47.832;-3.800;2022-11-15T12:30:28;7.63;;;1.50;;
50880;SDS011;36858;47.832;-3.800;2022-11-15T12:33:17;11.33;;;1.83;;
50880;SDS011;36858;47.832;-3.800;2022-11-15T12:36:11;7.30;;;1.43;;
50880;SDS011;36858;47.832;-3.800;2022-11-15T12:41:25;8.30;;;1.27;;
50880;SDS011;36858;47.832;-3.800;2022-11-15T15:10:09;8.43;;;1.90;;
50880;SDS011;36858;47.832;-3.800;2022-11-15T15:12:56;8.90;;;1.73;;
50880;SDS011;36858;47.832;-3.800;2022-11-15T15:15:25;5.87;;;2.13;;
50880;SDS011;36858;47.832;-3.800;2022-11-15T15:17:55;7.70;;;1.57;;
50880;SDS011;36858;47.832;-3.800;2022-11-15T15:20:22;6.67;;;2.13;;
50880;SDS011;36858;47.832;-3.800;2022-11-15T15:22:49;7.10;;;1.23;;
50880;SDS011;36858;47.832;-3.800;2022-11-15T15:25:19;6.10;;;1.23;;
50880;SDS011;36858;47.832;-3.800;2022-11-15T15:27:49;7.03;;;2.00;;
50880;SDS011;36858;47.832;-3.800;2022-11-15T15:30:16;6.77;;;1.73;;
50880;SDS011;36858;47.832;-3.800;2022-11-15T15:32:44;6.97;;;1.60;;
50880;SDS011;36858;47.832;-3.800;2022-11-15T15:35:15;4.20;;;1.27;;
50880;SDS011;36858;47.832;-3.800;2022-11-15T15:37:44;3.77;;;1.60;;
50880;SDS011;36858;47.832;-3.800;2022-11-15T15:40:14;8.97;;;1.70;;
50880;SDS011;36858;47.832;-3.800;2022-11-15T15:57:59;6.77;;;1.40;;
50880;SDS011;36858;47.832;-3.800;2022-11-15T16:00:27;7.63;;;1.80;;
50880;SDS011;36858;47.832;-3.800;2022-11-15T16:02:55;7.93;;;2.37;;
50880;SDS011;36858;47.832;-3.800;2022-11-15T16:05:22;8.67;;;1.90;;
50880;SDS011;36858;47.832;-3.800;2022-11-15T16:07:50;7.63;;;1.60;;
50880;SDS011;36858;47.832;-3.800;2022-11-15T16:12:53;4.60;;;1.47;;
50880;SDS011;36858;47.832;-3.800;2022-11-15T16:15:22;5.63;;;1.33;;
50880;SDS011;36858;47.832;-3.800;2022-11-15T16:17:51;9.47;;;2.33;;
50880;SDS011;36858;47.832;-3.800;2022-11-15T16:20:47;8.20;;;1.87;;
50880;SDS011;36858;47.832;-3.800;2022-11-15T16:23:21;7.53;;;2.33;;
50880;SDS011;36858;47.832;-3.800;2022-11-15T16:25:52;6.70;;;1.90;;
50880;SDS011;36858;47.832;-3.800;2022-11-15T16:28:24;8.90;;;2.50;;
50880;SDS011;36858;47.832;-3.800;2022-11-15T16:31:07;6.90;;;1.73;;
50880;SDS011;36858;47.832;-3.800;2022-11-15T16:33:36;10.97;;;1.67;;
50880;SDS011;36858;47.832;-3.800;2022-11-15T16:36:04;7.97;;;1.83;;
50880;SDS011;36858;47.832;-3.800;2022-11-15T16:38:33;6.73;;;1.40;;
50880;SDS011;36858;47.832;-3.800;2022-11-15T16:41:02;9.90;;;2.67;;
50880;SDS011;36858;47.832;-3.800;2022-11-15T16:43:30;11.93;;;2.83;;
50880;SDS011;36858;47.832;-3.800;2022-11-15T16:45:57;13.80;;;2.37;;
50880;SDS011;36858;47.832;-3.800;2022-11-15T16:48:25;7.40;;;2.47;;
50880;SDS011;36858;47.832;-3.800;2022-11-15T16:50:54;8.37;;;2.23;;
50880;SDS011;36858;47.832;-3.800;2022-11-15T17:58:27;8.33;;;1.40;;
50880;SDS011;36858;47.832;-3.800;2022-11-15T18:01:03;11.20;;;2.33;;
50880;SDS011;36858;47.832;-3.800;2022-11-15T18:03:35;12.13;;;1.83;;
50880;SDS011;36858;47.832;-3.800;2022-11-15T18:06:06;8.83;;;1.60;;
50880;SDS011;36858;47.832;-3.800;2022-11-15T18:08:34;7.23;;;1.70;;
50880;SDS011;36858;47.832;-3.800;2022-11-15T18:11:03;5.53;;;1.20;;
50880;SDS011;36858;47.832;-3.800;2022-11-15T18:13:36;5.07;;;1.10;;
50880;SDS011;36858;47.832;-3.800;2022-11-15T18:16:05;5.80;;;1.13;;
50880;SDS011;36858;47.832;-3.800;2022-11-15T18:18:34;5.27;;;1.10;;
50880;SDS011;36858;47.832;-3.800;2022-11-15T18:21:03;6.30;;;1.03;;
50880;SDS011;36858;47.832;-3.800;2022-11-15T18:23:31;5.47;;;1.00;;
50880;SDS011;36858;47.832;-3.800;2022-11-15T18:26:00;8.00;;;1.13;;
50880;SDS011;36858;47.832;-3.800;2022-11-15T18:28:29;6.77;;;1.33;;
50880;SDS011;36858;47.832;-3.800;2022-11-15T18:30:58;7.80;;;1.37;;
50880;SDS011;36858;47.832;-3.800;2022-11-15T18:33:27;9.20;;;2.03;;
50880;SDS011;36858;47.832;-3.800;2022-11-15T18:35:59;7.67;;;1.17;;
50880;SDS011;36858;47.832;-3.800;2022-11-15T18:38:28;4.50;;;1.27;;
50880;SDS011;36858;47.832;-3.800;2022-11-15T18:41:18;7.17;;;1.23;;
50880;SDS011;36858;47.832;-3.800;2022-11-15T18:43:46;6.70;;;1.20;;
50880;SDS011;36858;47.832;-3.800;2022-11-15T18:46:18;6.63;;;1.80;;
50880;SDS011;36858;47.832;-3.800;2022-11-15T18:48:47;5.63;;;1.67;;
50880;SDS011;36858;47.832;-3.800;2022-11-15T18:51:21;5.83;;;0.90;;
50880;SDS011;36858;47.832;-3.800;2022-11-15T18:53:54;6.60;;;1.70;;
50880;SDS011;36858;47.832;-3.800;2022-11-15T18:56:23;5.07;;;1.10;;
50880;SDS011;36858;47.832;-3.800;2022-11-15T18:58:53;5.57;;;1.40;;
50880;SDS011;36858;47.832;-3.800;2022-11-15T19:01:25;5.70;;;1.50;;
50880;SDS011;36858;47.832;-3.800;2022-11-15T20:21:33;3.67;;;1.30;;
50880;SDS011;36858;47.832;-3.800;2022-11-15T20:24:01;5.90;;;1.10;;
50880;SDS011;36858;47.832;-3.800;2022-11-15T20:26:28;8.10;;;1.50;;
50880;SDS011;36858;47.832;-3.800;2022-11-15T20:28:57;4.27;;;1.33;;
50880;SDS011;36858;47.832;-3.800;2022-11-15T20:31:28;5.53;;;1.13;;
50880;SDS011;36858;47.832;-3.800;2022-11-15T20:33:56;7.00;;;1.57;;
50880;SDS011;36858;47.832;-3.800;2022-11-15T20:36:23;7.77;;;1.50;;
50880;SDS011;36858;47.832;-3.800;2022-11-15T20:38:54;9.83;;;1.83;;
50880;SDS011;36858;47.832;-3.800;2022-11-15T20:41:23;6.73;;;1.70;;
50880;SDS011;36858;47.832;-3.800;2022-11-15T20:43:50;6.63;;;2.00;;
50880;SDS011;36858;47.832;-3.800;2022-11-15T20:46:18;8.23;;;1.80;;
50880;SDS011;36858;47.832;-3.800;2022-11-15T20:48:46;4.43;;;1.20;;
50880;SDS011;36858;47.832;-3.800;2022-11-15T20:51:14;10.57;;;1.73;;
50880;SDS011;36858;47.832;-3.800;2022-11-15T20:53:42;7.30;;;1.60;;
50880;SDS011;36858;47.832;-3.800;2022-11-15T20:56:15;7.53;;;1.43;;
50880;SDS011;36858;47.832;-3.800;2022-11-15T20:58:44;9.27;;;1.27;;
50880;SDS011;36858;47.832;-3.800;2022-11-15T21:01:13;6.47;;;1.43;;
50880;SDS011;36858;47.832;-3.800;2022-11-15T21:03:41;5.10;;;1.53;;
50880;SDS011;36858;47.832;-3.800;2022-11-15T21:06:09;7.97;;;1.97;;
50880;SDS011;36858;47.832;-3.800;2022-11-15T21:08:37;6.17;;;1.67;;
50880;SDS011;36858;47.832;-3.800;2022-11-15T21:11:23;6.40;;;1.17;;
50880;SDS011;36858;47.832;-3.800;2022-11-15T21:14:09;6.27;;;1.77;;
50880;SDS011;36858;47.832;-3.800;2022-11-15T21:16:37;6.03;;;1.80;;
50880;SDS011;36858;47.832;-3.800;2022-11-15T21:19:04;7.37;;;1.70;;
50880;SDS011;36858;47.832;-3.800;2022-11-15T21:21:33;8.20;;;1.90;;
50880;SDS011;36858;47.832;-3.800;2022-11-15T21:24:04;8.57;;;1.73;;
50880;SDS011;36858;47.832;-3.800;2022-11-15T21:38:52;7.50;;;2.10;;
50880;SDS011;36858;47.832;-3.800;2022-11-15T21:41:19;10.57;;;1.57;;
50880;SDS011;36858;47.832;-3.800;2022-11-15T21:43:47;6.87;;;1.63;;
50880;SDS011;36858;47.832;-3.800;2022-11-15T21:46:14;9.30;;;1.60;;
50880;SDS011;36858;47.832;-3.800;2022-11-15T21:48:42;6.23;;;1.93;;
50880;SDS011;36858;47.832;-3.800;2022-11-15T21:51:10;6.13;;;1.60;;
50880;SDS011;36858;47.832;-3.800;2022-11-15T21:53:37;9.80;;;2.20;;
50880;SDS011;36858;47.832;-3.800;2022-11-15T21:56:05;5.83;;;1.30;;
50880;SDS011;36858;47.832;-3.800;2022-11-15T21:58:33;6.83;;;1.93;;
50880;SDS011;36858;47.832;-3.800;2022-11-15T22:01:02;8.30;;;1.60;;
50880;SDS011;36858;47.832;-3.800;2022-11-15T22:03:48;3.17;;;1.43;;
50880;SDS011;36858;47.832;-3.800;2022-11-15T22:06:16;8.20;;;1.97;;
50880;SDS011;36858;47.832;-3.800;2022-11-15T22:08:44;7.73;;;2.23;;
50880;SDS011;36858;47.832;-3.800;2022-11-15T22:17:51;6.73;;;1.93;;
50880;SDS011;36858;47.832;-3.800;2022-11-15T22:20:25;10.27;;;1.83;;
50880;SDS011;36858;47.832;-3.800;2022-11-15T22:23:10;8.03;;;1.53;;
50880;SDS011;36858;47.832;-3.800;2022-11-15T22:25:38;7.20;;;1.70;;
50880;SDS011;36858;47.832;-3.800;2022-11-15T22:28:05;13.33;;;2.33;;
50880;SDS011;36858;47.832;-3.800;2022-11-15T22:30:33;10.20;;;2.70;;
50880;SDS011;36858;47.832;-3.800;2022-11-15T22:33:00;12.27;;;2.30;;
50880;SDS011;36858;47.832;-3.800;2022-11-15T22:35:28;14.27;;;3.40;;
50880;SDS011;36858;47.832;-3.800;2022-11-15T22:37:56;10.43;;;2.40;;
50880;SDS011;36858;47.832;-3.800;2022-11-15T22:40:23;8.13;;;2.43;;
50880;SDS011;36858;47.832;-3.800;2022-11-15T22:42:51;9.77;;;2.20;;
50880;SDS011;36858;47.832;-3.800;2022-11-15T22:45:18;15.10;;;2.43;;
50880;SDS011;36858;47.832;-3.800;2022-11-15T22:47:45;14.97;;;2.33;;
50880;SDS011;36858;47.832;-3.800;2022-11-15T22:50:13;9.60;;;2.27;;
50880;SDS011;36858;47.832;-3.800;2022-11-15T22:52:41;7.70;;;2.07;;
50880;SDS011;36858;47.832;-3.800;2022-11-15T22:55:08;9.53;;;2.50;;
50880;SDS011;36858;47.832;-3.800;2022-11-15T22:57:36;9.13;;;2.20;;
50880;SDS011;36858;47.832;-3.800;2022-11-15T23:00:08;12.90;;;2.70;;
50880;SDS011;36858;47.832;-3.800;2022-11-15T23:02:38;8.77;;;1.77;;
50880;SDS011;36858;47.832;-3.800;2022-11-15T23:05:06;7.93;;;1.77;;
50880;SDS011;36858;47.832;-3.800;2022-11-15T23:07:33;7.63;;;1.73;;
50880;SDS011;36858;47.832;-3.800;2022-11-15T23:10:01;5.93;;;1.20;;
50880;SDS011;36858;47.832;-3.800;2022-11-15T23:12:47;5.97;;;1.80;;
50880;SDS011;36858;47.832;-3.800;2022-11-15T23:15:33;5.37;;;1.53;;
50880;SDS011;36858;47.832;-3.800;2022-11-15T23:18:18;6.80;;;1.47;;
50880;SDS011;36858;47.832;-3.800;2022-11-15T23:20:46;6.20;;;1.40;;
50880;SDS011;36858;47.832;-3.800;2022-11-15T23:23:13;5.53;;;1.47;;
50880;SDS011;36858;47.832;-3.800;2022-11-15T23:25:41;5.77;;;1.67;;
50880;SDS011;36858;47.832;-3.800;2022-11-15T23:28:09;8.60;;;1.80;;
50880;SDS011;36858;47.832;-3.800;2022-11-15T23:30:37;11.30;;;3.47;;
50880;SDS011;36858;47.832;-3.800;2022-11-15T23:33:23;9.50;;;2.80;;
50880;SDS011;36858;47.832;-3.800;2022-11-15T23:36:09;12.07;;;2.77;;
50880;SDS011;36858;47.832;-3.800;2022-11-15T23:38:36;12.20;;;2.83;;
50880;SDS011;36858;47.832;-3.800;2022-11-15T23:41:04;8.13;;;2.17;;
50880;SDS011;36858;47.832;-3.800;2022-11-15T23:43:32;9.57;;;2.40;;
50880;SDS011;36858;47.832;-3.800;2022-11-15T23:45:59;10.30;;;2.07;;
50880;SDS011;36858;47.832;-3.800;2022-11-15T23:48:27;11.97;;;2.47;;
50880;SDS011;36858;47.832;-3.800;2022-11-15T23:55:01;12.47;;;2.13;;
50880;SDS011;36858;47.832;-3.800;2022-11-15T23:57:29;17.37;;;2.50;;
50880;SDS011;36858;47.832;-3.800;2022-11-15T23:59:57;9.07;;;2.23;;
